sensor_id;sensor_type;location;lat;lon;timestamp;P1;durP1;ratioP1;P2;durP2;ratioP2
54977;SDS011;40873;47.522;19.106;2022-08-21T00:01:37;6.22;;;3.90;;
54977;SDS011;40873;47.522;19.106;2022-08-21T00:04:07;4.45;;;3.47;;
54977;SDS011;40873;47.522;19.106;2022-08-21T00:06:35;4.90;;;3.30;;
54977;SDS011;40873;47.522;19.106;2022-08-21T00:09:06;4.82;;;3.70;;
54977;SDS011;40873;47.522;19.106;2022-08-21T00:11:34;9.50;;;3.85;;
54977;SDS011;40873;47.522;19.106;2022-08-21T00:14:03;5.55;;;3.97;;
54977;SDS011;40873;47.522;19.106;2022-08-21T00:16:31;4.22;;;3.58;;
54977;SDS011;40873;47.522;19.106;2022-08-21T00:18:58;4.97;;;3.83;;
54977;SDS011;40873;47.522;19.106;2022-08-21T00:21:25;6.07;;;4.00;;
54977;SDS011;40873;47.522;19.106;2022-08-21T00:23:52;7.05;;;3.90;;
54977;SDS011;40873;47.522;19.106;2022-08-21T00:26:19;5.55;;;4.07;;
54977;SDS011;40873;47.522;19.106;2022-08-21T00:28:46;5.57;;;4.22;;
54977;SDS011;40873;47.522;19.106;2022-08-21T00:31:16;5.57;;;3.70;;
54977;SDS011;40873;47.522;19.106;2022-08-21T00:33:44;4.90;;;4.05;;
54977;SDS011;40873;47.522;19.106;2022-08-21T00:36:11;6.72;;;4.38;;
54977;SDS011;40873;47.522;19.106;2022-08-21T00:38:38;5.80;;;4.10;;
54977;SDS011;40873;47.522;19.106;2022-08-21T00:41:07;5.50;;;4.65;;
54977;SDS011;40873;47.522;19.106;2022-08-21T00:43:56;4.78;;;3.88;;
54977;SDS011;40873;47.522;19.106;2022-08-21T00:46:23;6.40;;;4.80;;
54977;SDS011;40873;47.522;19.106;2022-08-21T00:48:54;7.03;;;4.43;;
54977;SDS011;40873;47.522;19.106;2022-08-21T00:51:33;6.78;;;4.57;;
54977;SDS011;40873;47.522;19.106;2022-08-21T00:54:05;5.85;;;5.10;;
54977;SDS011;40873;47.522;19.106;2022-08-21T00:56:48;6.63;;;4.60;;
54977;SDS011;40873;47.522;19.106;2022-08-21T00:59:18;6.72;;;4.70;;
54977;SDS011;40873;47.522;19.106;2022-08-21T01:01:47;8.70;;;4.60;;
54977;SDS011;40873;47.522;19.106;2022-08-21T01:04:14;6.32;;;5.00;;
54977;SDS011;40873;47.522;19.106;2022-08-21T01:06:42;6.20;;;4.35;;
54977;SDS011;40873;47.522;19.106;2022-08-21T01:09:10;6.45;;;5.03;;
54977;SDS011;40873;47.522;19.106;2022-08-21T01:11:38;5.68;;;4.40;;
54977;SDS011;40873;47.522;19.106;2022-08-21T01:14:05;8.05;;;5.47;;
54977;SDS011;40873;47.522;19.106;2022-08-21T01:16:32;6.63;;;4.80;;
54977;SDS011;40873;47.522;19.106;2022-08-21T01:18:59;6.55;;;5.10;;
54977;SDS011;40873;47.522;19.106;2022-08-21T01:21:27;6.38;;;4.78;;
54977;SDS011;40873;47.522;19.106;2022-08-21T01:23:55;8.10;;;5.53;;
54977;SDS011;40873;47.522;19.106;2022-08-21T01:26:24;8.07;;;5.55;;
54977;SDS011;40873;47.522;19.106;2022-08-21T01:29:02;9.32;;;5.68;;
54977;SDS011;40873;47.522;19.106;2022-08-21T01:31:36;8.88;;;5.38;;
54977;SDS011;40873;47.522;19.106;2022-08-21T01:34:04;9.07;;;5.95;;
54977;SDS011;40873;47.522;19.106;2022-08-21T01:36:31;8.38;;;5.75;;
54977;SDS011;40873;47.522;19.106;2022-08-21T01:38:58;6.20;;;4.15;;
54977;SDS011;40873;47.522;19.106;2022-08-21T01:41:25;7.22;;;5.35;;
54977;SDS011;40873;47.522;19.106;2022-08-21T01:43:51;9.00;;;6.30;;
54977;SDS011;40873;47.522;19.106;2022-08-21T01:46:18;9.57;;;5.85;;
54977;SDS011;40873;47.522;19.106;2022-08-21T01:48:45;9.25;;;5.88;;
54977;SDS011;40873;47.522;19.106;2022-08-21T01:51:12;8.50;;;5.78;;
54977;SDS011;40873;47.522;19.106;2022-08-21T01:53:39;9.65;;;6.68;;
54977;SDS011;40873;47.522;19.106;2022-08-21T01:56:08;8.15;;;5.55;;
54977;SDS011;40873;47.522;19.106;2022-08-21T01:58:39;9.57;;;6.22;;
54977;SDS011;40873;47.522;19.106;2022-08-21T02:01:08;11.00;;;6.75;;
54977;SDS011;40873;47.522;19.106;2022-08-21T02:03:36;8.55;;;6.20;;
54977;SDS011;40873;47.522;19.106;2022-08-21T02:06:04;9.60;;;6.18;;
54977;SDS011;40873;47.522;19.106;2022-08-21T02:08:33;9.95;;;5.85;;
54977;SDS011;40873;47.522;19.106;2022-08-21T02:11:00;8.88;;;6.25;;
54977;SDS011;40873;47.522;19.106;2022-08-21T02:13:27;11.40;;;6.57;;
54977;SDS011;40873;47.522;19.106;2022-08-21T02:15:54;9.65;;;6.22;;
54977;SDS011;40873;47.522;19.106;2022-08-21T02:18:21;8.05;;;5.78;;
54977;SDS011;40873;47.522;19.106;2022-08-21T02:20:49;13.75;;;6.28;;
54977;SDS011;40873;47.522;19.106;2022-08-21T02:23:21;9.02;;;6.18;;
54977;SDS011;40873;47.522;19.106;2022-08-21T02:25:59;9.85;;;5.88;;
54977;SDS011;40873;47.522;19.106;2022-08-21T02:28:27;8.43;;;5.85;;
54977;SDS011;40873;47.522;19.106;2022-08-21T02:30:55;10.60;;;6.57;;
54977;SDS011;40873;47.522;19.106;2022-08-21T02:33:23;11.70;;;6.88;;
54977;SDS011;40873;47.522;19.106;2022-08-21T02:35:52;8.55;;;5.78;;
54977;SDS011;40873;47.522;19.106;2022-08-21T02:38:21;10.88;;;6.65;;
54977;SDS011;40873;47.522;19.106;2022-08-21T02:40:50;12.15;;;6.85;;
54977;SDS011;40873;47.522;19.106;2022-08-21T02:43:19;12.07;;;5.93;;
54977;SDS011;40873;47.522;19.106;2022-08-21T02:45:48;9.15;;;5.82;;
54977;SDS011;40873;47.522;19.106;2022-08-21T02:48:17;13.30;;;7.35;;
54977;SDS011;40873;47.522;19.106;2022-08-21T02:50:50;9.68;;;5.95;;
54977;SDS011;40873;47.522;19.106;2022-08-21T02:53:25;11.98;;;6.65;;
54977;SDS011;40873;47.522;19.106;2022-08-21T02:55:53;12.95;;;6.43;;
54977;SDS011;40873;47.522;19.106;2022-08-21T02:58:22;12.93;;;6.43;;
54977;SDS011;40873;47.522;19.106;2022-08-21T03:00:51;12.38;;;6.85;;
54977;SDS011;40873;47.522;19.106;2022-08-21T03:03:19;11.45;;;6.03;;
54977;SDS011;40873;47.522;19.106;2022-08-21T03:05:47;11.48;;;6.78;;
54977;SDS011;40873;47.522;19.106;2022-08-21T03:08:15;10.75;;;6.07;;
54977;SDS011;40873;47.522;19.106;2022-08-21T03:10:44;12.07;;;6.30;;
54977;SDS011;40873;47.522;19.106;2022-08-21T03:13:15;11.27;;;6.95;;
54977;SDS011;40873;47.522;19.106;2022-08-21T03:15:43;10.88;;;6.53;;
54977;SDS011;40873;47.522;19.106;2022-08-21T03:18:11;13.48;;;6.70;;
54977;SDS011;40873;47.522;19.106;2022-08-21T03:20:39;10.60;;;6.05;;
54977;SDS011;40873;47.522;19.106;2022-08-21T03:23:07;11.05;;;6.28;;
54977;SDS011;40873;47.522;19.106;2022-08-21T03:25:40;11.93;;;5.70;;
54977;SDS011;40873;47.522;19.106;2022-08-21T03:28:11;11.95;;;6.68;;
54977;SDS011;40873;47.522;19.106;2022-08-21T03:30:42;12.13;;;6.68;;
54977;SDS011;40873;47.522;19.106;2022-08-21T03:33:09;10.85;;;6.68;;
54977;SDS011;40873;47.522;19.106;2022-08-21T03:35:41;11.20;;;6.95;;
54977;SDS011;40873;47.522;19.106;2022-08-21T03:38:09;11.18;;;6.88;;
54977;SDS011;40873;47.522;19.106;2022-08-21T03:40:39;9.63;;;6.72;;
54977;SDS011;40873;47.522;19.106;2022-08-21T03:43:07;13.68;;;7.53;;
54977;SDS011;40873;47.522;19.106;2022-08-21T03:45:36;10.50;;;6.38;;
54977;SDS011;40873;47.522;19.106;2022-08-21T03:48:04;11.43;;;6.60;;
54977;SDS011;40873;47.522;19.106;2022-08-21T03:50:34;12.32;;;7.72;;
54977;SDS011;40873;47.522;19.106;2022-08-21T03:53:07;12.07;;;7.20;;
54977;SDS011;40873;47.522;19.106;2022-08-21T03:55:42;11.15;;;7.05;;
54977;SDS011;40873;47.522;19.106;2022-08-21T03:58:14;11.52;;;7.28;;
54977;SDS011;40873;47.522;19.106;2022-08-21T04:00:44;11.50;;;6.60;;
54977;SDS011;40873;47.522;19.106;2022-08-21T04:03:12;12.25;;;7.43;;
54977;SDS011;40873;47.522;19.106;2022-08-21T04:05:39;10.63;;;6.93;;
54977;SDS011;40873;47.522;19.106;2022-08-21T04:08:07;12.88;;;8.18;;
54977;SDS011;40873;47.522;19.106;2022-08-21T04:10:35;11.50;;;7.60;;
54977;SDS011;40873;47.522;19.106;2022-08-21T04:13:03;11.77;;;7.57;;
54977;SDS011;40873;47.522;19.106;2022-08-21T04:15:31;10.00;;;6.65;;
54977;SDS011;40873;47.522;19.106;2022-08-21T04:17:58;11.20;;;6.72;;
54977;SDS011;40873;47.522;19.106;2022-08-21T04:20:25;11.95;;;6.53;;
54977;SDS011;40873;47.522;19.106;2022-08-21T04:22:52;13.45;;;7.18;;
54977;SDS011;40873;47.522;19.106;2022-08-21T04:25:20;11.32;;;7.35;;
54977;SDS011;40873;47.522;19.106;2022-08-21T04:27:49;11.23;;;7.90;;
54977;SDS011;40873;47.522;19.106;2022-08-21T04:30:16;13.90;;;8.07;;
54977;SDS011;40873;47.522;19.106;2022-08-21T04:32:46;11.55;;;7.45;;
54977;SDS011;40873;47.522;19.106;2022-08-21T04:35:18;13.05;;;7.65;;
54977;SDS011;40873;47.522;19.106;2022-08-21T04:37:47;15.23;;;7.82;;
54977;SDS011;40873;47.522;19.106;2022-08-21T04:40:15;12.88;;;7.00;;
54977;SDS011;40873;47.522;19.106;2022-08-21T04:42:46;11.13;;;7.18;;
54977;SDS011;40873;47.522;19.106;2022-08-21T04:47:51;10.55;;;7.07;;
54977;SDS011;40873;47.522;19.106;2022-08-21T04:50:20;10.70;;;7.47;;
54977;SDS011;40873;47.522;19.106;2022-08-21T04:52:50;12.00;;;8.25;;
54977;SDS011;40873;47.522;19.106;2022-08-21T04:55:18;12.93;;;7.35;;
54977;SDS011;40873;47.522;19.106;2022-08-21T04:57:46;11.70;;;7.53;;
54977;SDS011;40873;47.522;19.106;2022-08-21T05:00:15;11.63;;;7.82;;
54977;SDS011;40873;47.522;19.106;2022-08-21T05:02:45;11.70;;;7.32;;
54977;SDS011;40873;47.522;19.106;2022-08-21T05:05:14;10.93;;;6.80;;
54977;SDS011;40873;47.522;19.106;2022-08-21T05:07:42;10.77;;;7.40;;
54977;SDS011;40873;47.522;19.106;2022-08-21T05:10:11;11.73;;;7.00;;
54977;SDS011;40873;47.522;19.106;2022-08-21T05:12:43;9.18;;;6.70;;
54977;SDS011;40873;47.522;19.106;2022-08-21T05:15:11;10.32;;;6.50;;
54977;SDS011;40873;47.522;19.106;2022-08-21T05:17:40;9.55;;;5.78;;
54977;SDS011;40873;47.522;19.106;2022-08-21T05:20:11;10.80;;;7.10;;
54977;SDS011;40873;47.522;19.106;2022-08-21T05:22:39;8.77;;;6.47;;
54977;SDS011;40873;47.522;19.106;2022-08-21T05:25:06;8.07;;;5.93;;
54977;SDS011;40873;47.522;19.106;2022-08-21T05:27:36;9.23;;;5.93;;
54977;SDS011;40873;47.522;19.106;2022-08-21T05:30:05;8.15;;;5.40;;
54977;SDS011;40873;47.522;19.106;2022-08-21T05:32:34;8.75;;;5.65;;
54977;SDS011;40873;47.522;19.106;2022-08-21T05:35:02;8.15;;;5.60;;
54977;SDS011;40873;47.522;19.106;2022-08-21T05:37:33;11.57;;;6.50;;
54977;SDS011;40873;47.522;19.106;2022-08-21T05:40:00;8.02;;;5.50;;
54977;SDS011;40873;47.522;19.106;2022-08-21T05:42:47;12.30;;;6.40;;
54977;SDS011;40873;47.522;19.106;2022-08-21T05:45:25;7.53;;;4.95;;
54977;SDS011;40873;47.522;19.106;2022-08-21T05:48:11;7.18;;;5.18;;
54977;SDS011;40873;47.522;19.106;2022-08-21T05:53:11;8.63;;;5.22;;
54977;SDS011;40873;47.522;19.106;2022-08-21T05:55:39;7.85;;;5.82;;
54977;SDS011;40873;47.522;19.106;2022-08-21T05:58:16;8.05;;;5.78;;
54977;SDS011;40873;47.522;19.106;2022-08-21T06:00:46;9.88;;;5.32;;
54977;SDS011;40873;47.522;19.106;2022-08-21T06:03:19;7.38;;;5.35;;
54977;SDS011;40873;47.522;19.106;2022-08-21T06:05:49;7.20;;;5.13;;
54977;SDS011;40873;47.522;19.106;2022-08-21T06:08:17;8.05;;;5.28;;
54977;SDS011;40873;47.522;19.106;2022-08-21T06:10:45;8.30;;;5.72;;
54977;SDS011;40873;47.522;19.106;2022-08-21T06:13:14;9.73;;;5.53;;
54977;SDS011;40873;47.522;19.106;2022-08-21T06:15:42;7.97;;;5.03;;
54977;SDS011;40873;47.522;19.106;2022-08-21T06:18:09;7.30;;;4.68;;
54977;SDS011;40873;47.522;19.106;2022-08-21T06:20:37;8.38;;;5.13;;
54977;SDS011;40873;47.522;19.106;2022-08-21T06:23:04;7.43;;;4.93;;
54977;SDS011;40873;47.522;19.106;2022-08-21T06:25:31;7.15;;;4.93;;
54977;SDS011;40873;47.522;19.106;2022-08-21T06:28:03;7.07;;;5.00;;
54977;SDS011;40873;47.522;19.106;2022-08-21T06:30:32;9.02;;;6.28;;
54977;SDS011;40873;47.522;19.106;2022-08-21T06:33:00;6.82;;;4.80;;
54977;SDS011;40873;47.522;19.106;2022-08-21T06:35:27;6.78;;;4.85;;
54977;SDS011;40873;47.522;19.106;2022-08-21T06:37:56;6.78;;;5.00;;
54977;SDS011;40873;47.522;19.106;2022-08-21T06:40:24;6.88;;;4.80;;
54977;SDS011;40873;47.522;19.106;2022-08-21T06:42:55;6.65;;;4.72;;
54977;SDS011;40873;47.522;19.106;2022-08-21T06:45:23;5.15;;;4.05;;
54977;SDS011;40873;47.522;19.106;2022-08-21T06:47:53;10.98;;;5.28;;
54977;SDS011;40873;47.522;19.106;2022-08-21T06:50:20;6.50;;;4.80;;
54977;SDS011;40873;47.522;19.106;2022-08-21T06:52:47;7.70;;;4.72;;
54977;SDS011;40873;47.522;19.106;2022-08-21T06:55:14;8.88;;;4.43;;
54977;SDS011;40873;47.522;19.106;2022-08-21T06:57:47;11.93;;;5.60;;
54977;SDS011;40873;47.522;19.106;2022-08-21T07:00:18;8.25;;;4.43;;
54977;SDS011;40873;47.522;19.106;2022-08-21T07:02:45;6.10;;;4.28;;
54977;SDS011;40873;47.522;19.106;2022-08-21T07:05:12;8.55;;;4.93;;
54977;SDS011;40873;47.522;19.106;2022-08-21T07:07:44;6.47;;;4.03;;
54977;SDS011;40873;47.522;19.106;2022-08-21T07:10:12;5.72;;;4.32;;
54977;SDS011;40873;47.522;19.106;2022-08-21T07:12:48;9.02;;;4.45;;
54977;SDS011;40873;47.522;19.106;2022-08-21T07:15:26;8.90;;;4.10;;
54977;SDS011;40873;47.522;19.106;2022-08-21T07:17:53;8.45;;;4.53;;
54977;SDS011;40873;47.522;19.106;2022-08-21T07:20:20;8.55;;;4.25;;
54977;SDS011;40873;47.522;19.106;2022-08-21T07:22:47;6.43;;;4.57;;
54977;SDS011;40873;47.522;19.106;2022-08-21T07:25:14;6.85;;;4.35;;
54977;SDS011;40873;47.522;19.106;2022-08-21T07:27:40;6.38;;;4.22;;
54977;SDS011;40873;47.522;19.106;2022-08-21T07:30:07;5.43;;;3.70;;
54977;SDS011;40873;47.522;19.106;2022-08-21T07:32:35;7.28;;;4.38;;
54977;SDS011;40873;47.522;19.106;2022-08-21T07:35:03;8.48;;;4.68;;
54977;SDS011;40873;47.522;19.106;2022-08-21T07:37:30;6.68;;;4.45;;
54977;SDS011;40873;47.522;19.106;2022-08-21T07:39:57;8.40;;;4.85;;
54977;SDS011;40873;47.522;19.106;2022-08-21T07:42:24;8.70;;;5.03;;
54977;SDS011;40873;47.522;19.106;2022-08-21T07:44:51;9.75;;;3.28;;
54977;SDS011;40873;47.522;19.106;2022-08-21T07:47:22;6.30;;;3.40;;
54977;SDS011;40873;47.522;19.106;2022-08-21T07:50:09;6.07;;;4.10;;
54977;SDS011;40873;47.522;19.106;2022-08-21T07:52:39;8.18;;;4.13;;
54977;SDS011;40873;47.522;19.106;2022-08-21T07:55:08;6.00;;;4.00;;
54977;SDS011;40873;47.522;19.106;2022-08-21T07:57:37;8.02;;;4.60;;
54977;SDS011;40873;47.522;19.106;2022-08-21T08:00:05;8.02;;;4.95;;
54977;SDS011;40873;47.522;19.106;2022-08-21T08:02:34;8.10;;;3.97;;
54977;SDS011;40873;47.522;19.106;2022-08-21T08:05:05;6.78;;;4.10;;
54977;SDS011;40873;47.522;19.106;2022-08-21T08:07:35;7.07;;;4.18;;
54977;SDS011;40873;47.522;19.106;2022-08-21T08:10:03;5.22;;;3.78;;
54977;SDS011;40873;47.522;19.106;2022-08-21T08:12:31;6.55;;;4.43;;
54977;SDS011;40873;47.522;19.106;2022-08-21T08:14:59;8.10;;;3.47;;
54977;SDS011;40873;47.522;19.106;2022-08-21T08:17:27;5.55;;;3.38;;
54977;SDS011;40873;47.522;19.106;2022-08-21T08:19:54;8.85;;;3.90;;
54977;SDS011;40873;47.522;19.106;2022-08-21T08:22:22;5.80;;;3.88;;
54977;SDS011;40873;47.522;19.106;2022-08-21T08:24:50;5.72;;;4.13;;
54977;SDS011;40873;47.522;19.106;2022-08-21T08:27:19;5.60;;;3.97;;
54977;SDS011;40873;47.522;19.106;2022-08-21T08:29:46;6.45;;;4.38;;
54977;SDS011;40873;47.522;19.106;2022-08-21T08:32:13;5.93;;;4.28;;
54977;SDS011;40873;47.522;19.106;2022-08-21T08:34:40;7.50;;;4.63;;
54977;SDS011;40873;47.522;19.106;2022-08-21T08:37:08;6.35;;;4.20;;
54977;SDS011;40873;47.522;19.106;2022-08-21T08:39:36;10.25;;;4.07;;
54977;SDS011;40873;47.522;19.106;2022-08-21T08:42:09;4.90;;;3.45;;
54977;SDS011;40873;47.522;19.106;2022-08-21T08:47:42;6.53;;;4.03;;
54977;SDS011;40873;47.522;19.106;2022-08-21T08:53:15;7.35;;;4.10;;
54977;SDS011;40873;47.522;19.106;2022-08-21T08:55:46;6.50;;;4.60;;
54977;SDS011;40873;47.522;19.106;2022-08-21T08:58:27;5.93;;;4.38;;
54977;SDS011;40873;47.522;19.106;2022-08-21T09:00:56;6.63;;;4.22;;
54977;SDS011;40873;47.522;19.106;2022-08-21T09:03:24;5.50;;;4.55;;
54977;SDS011;40873;47.522;19.106;2022-08-21T09:05:58;7.13;;;4.90;;
54977;SDS011;40873;47.522;19.106;2022-08-21T09:08:46;6.05;;;4.35;;
54977;SDS011;40873;47.522;19.106;2022-08-21T09:11:42;8.48;;;4.55;;
54977;SDS011;40873;47.522;19.106;2022-08-21T09:14:25;7.40;;;4.45;;
54977;SDS011;40873;47.522;19.106;2022-08-21T09:17:13;6.68;;;4.38;;
54977;SDS011;40873;47.522;19.106;2022-08-21T09:19:56;10.90;;;4.60;;
54977;SDS011;40873;47.522;19.106;2022-08-21T09:22:43;5.25;;;4.30;;
54977;SDS011;40873;47.522;19.106;2022-08-21T09:25:32;7.63;;;5.25;;
54977;SDS011;40873;47.522;19.106;2022-08-21T09:28:08;6.68;;;4.95;;
54977;SDS011;40873;47.522;19.106;2022-08-21T09:30:38;8.13;;;4.40;;
54977;SDS011;40873;47.522;19.106;2022-08-21T09:33:08;6.63;;;4.90;;
54977;SDS011;40873;47.522;19.106;2022-08-21T09:35:47;7.05;;;3.78;;
54977;SDS011;40873;47.522;19.106;2022-08-21T09:38:51;6.03;;;4.60;;
54977;SDS011;40873;47.522;19.106;2022-08-21T09:41:25;6.63;;;5.10;;
54977;SDS011;40873;47.522;19.106;2022-08-21T09:43:57;6.53;;;5.15;;
54977;SDS011;40873;47.522;19.106;2022-08-21T09:46:25;5.57;;;4.30;;
54977;SDS011;40873;47.522;19.106;2022-08-21T09:48:55;9.55;;;5.07;;
54977;SDS011;40873;47.522;19.106;2022-08-21T09:56:55;5.78;;;4.63;;
54977;SDS011;40873;47.522;19.106;2022-08-21T09:59:41;7.05;;;4.90;;
54977;SDS011;40873;47.522;19.106;2022-08-21T10:05:00;7.55;;;5.10;;
54977;SDS011;40873;47.522;19.106;2022-08-21T10:07:37;6.28;;;3.88;;
54977;SDS011;40873;47.522;19.106;2022-08-21T10:10:09;6.22;;;4.15;;
54977;SDS011;40873;47.522;19.106;2022-08-21T10:21:21;7.50;;;5.00;;
54977;SDS011;40873;47.522;19.106;2022-08-21T10:40:22;7.05;;;4.28;;
54977;SDS011;40873;47.522;19.106;2022-08-21T10:43:14;6.95;;;5.15;;
54977;SDS011;40873;47.522;19.106;2022-08-21T10:46:21;5.50;;;4.20;;
54977;SDS011;40873;47.522;19.106;2022-08-21T10:51:32;6.80;;;4.55;;
54977;SDS011;40873;47.522;19.106;2022-08-21T10:56:36;7.13;;;4.32;;
54977;SDS011;40873;47.522;19.106;2022-08-21T11:02:10;8.18;;;5.32;;
54977;SDS011;40873;47.522;19.106;2022-08-21T11:07:39;6.53;;;4.78;;
54977;SDS011;40873;47.522;19.106;2022-08-21T11:21:42;9.57;;;5.18;;
54977;SDS011;40873;47.522;19.106;2022-08-21T11:24:23;8.93;;;5.65;;
54977;SDS011;40873;47.522;19.106;2022-08-21T11:27:04;7.47;;;5.32;;
54977;SDS011;40873;47.522;19.106;2022-08-21T11:29:54;7.65;;;5.40;;
54977;SDS011;40873;47.522;19.106;2022-08-21T11:37:53;10.38;;;5.50;;
54977;SDS011;40873;47.522;19.106;2022-08-21T11:46:00;7.60;;;4.90;;
54977;SDS011;40873;47.522;19.106;2022-08-21T11:48:40;5.63;;;3.97;;
54977;SDS011;40873;47.522;19.106;2022-08-21T11:56:46;6.45;;;4.30;;
54977;SDS011;40873;47.522;19.106;2022-08-21T11:59:40;6.47;;;4.80;;
54977;SDS011;40873;47.522;19.106;2022-08-21T12:02:13;10.07;;;6.00;;
54977;SDS011;40873;47.522;19.106;2022-08-21T12:05:06;6.70;;;4.70;;
54977;SDS011;40873;47.522;19.106;2022-08-21T12:07:36;7.30;;;5.32;;
54977;SDS011;40873;47.522;19.106;2022-08-21T12:10:13;6.35;;;4.43;;
54977;SDS011;40873;47.522;19.106;2022-08-21T12:12:44;8.82;;;5.32;;
54977;SDS011;40873;47.522;19.106;2022-08-21T12:17:52;7.05;;;4.88;;
54977;SDS011;40873;47.522;19.106;2022-08-21T12:20:26;7.85;;;5.28;;
54977;SDS011;40873;47.522;19.106;2022-08-21T12:23:05;6.68;;;4.53;;
54977;SDS011;40873;47.522;19.106;2022-08-21T12:25:43;6.32;;;4.55;;
54977;SDS011;40873;47.522;19.106;2022-08-21T12:28:15;7.67;;;5.30;;
54977;SDS011;40873;47.522;19.106;2022-08-21T12:30:49;7.00;;;4.38;;
54977;SDS011;40873;47.522;19.106;2022-08-21T12:35:48;9.93;;;5.03;;
54977;SDS011;40873;47.522;19.106;2022-08-21T12:38:32;6.53;;;5.05;;
54977;SDS011;40873;47.522;19.106;2022-08-21T12:41:14;7.25;;;5.40;;
54977;SDS011;40873;47.522;19.106;2022-08-21T12:43:53;10.20;;;5.35;;
54977;SDS011;40873;47.522;19.106;2022-08-21T12:46:28;7.95;;;5.43;;
54977;SDS011;40873;47.522;19.106;2022-08-21T12:52:14;11.60;;;6.07;;
54977;SDS011;40873;47.522;19.106;2022-08-21T12:54:47;6.60;;;5.10;;
54977;SDS011;40873;47.522;19.106;2022-08-21T12:57:22;9.38;;;5.60;;
54977;SDS011;40873;47.522;19.106;2022-08-21T12:59:55;8.05;;;5.55;;
54977;SDS011;40873;47.522;19.106;2022-08-21T13:02:31;8.38;;;5.65;;
54977;SDS011;40873;47.522;19.106;2022-08-21T13:05:03;8.13;;;6.00;;
54977;SDS011;40873;47.522;19.106;2022-08-21T13:07:32;11.13;;;6.75;;
54977;SDS011;40873;47.522;19.106;2022-08-21T13:10:06;12.57;;;7.85;;
54977;SDS011;40873;47.522;19.106;2022-08-21T13:12:49;12.50;;;7.38;;
54977;SDS011;40873;47.522;19.106;2022-08-21T13:15:22;15.13;;;8.57;;
54977;SDS011;40873;47.522;19.106;2022-08-21T13:17:59;13.23;;;6.72;;
54977;SDS011;40873;47.522;19.106;2022-08-21T13:23:02;12.70;;;8.20;;
54977;SDS011;40873;47.522;19.106;2022-08-21T13:25:36;16.80;;;7.97;;
54977;SDS011;40873;47.522;19.106;2022-08-21T13:28:08;14.90;;;9.52;;
54977;SDS011;40873;47.522;19.106;2022-08-21T13:30:55;14.02;;;8.25;;
54977;SDS011;40873;47.522;19.106;2022-08-21T13:33:24;13.27;;;8.15;;
54977;SDS011;40873;47.522;19.106;2022-08-21T13:36:10;10.25;;;6.97;;
54977;SDS011;40873;47.522;19.106;2022-08-21T13:38:44;11.70;;;7.63;;
54977;SDS011;40873;47.522;19.106;2022-08-21T13:41:21;13.00;;;7.07;;
54977;SDS011;40873;47.522;19.106;2022-08-21T13:43:58;8.10;;;6.03;;
54977;SDS011;40873;47.522;19.106;2022-08-21T13:46:28;7.53;;;5.15;;
54977;SDS011;40873;47.522;19.106;2022-08-21T13:48:58;7.28;;;4.55;;
54977;SDS011;40873;47.522;19.106;2022-08-21T13:51:26;7.18;;;5.00;;
54977;SDS011;40873;47.522;19.106;2022-08-21T13:53:54;6.55;;;4.63;;
54977;SDS011;40873;47.522;19.106;2022-08-21T13:58:54;6.10;;;4.55;;
54977;SDS011;40873;47.522;19.106;2022-08-21T14:02:11;6.00;;;4.53;;
54977;SDS011;40873;47.522;19.106;2022-08-21T14:04:38;8.07;;;4.40;;
54977;SDS011;40873;47.522;19.106;2022-08-21T14:07:29;7.57;;;4.15;;
54977;SDS011;40873;47.522;19.106;2022-08-21T14:10:01;5.47;;;3.97;;
54977;SDS011;40873;47.522;19.106;2022-08-21T14:12:50;7.28;;;5.18;;
54977;SDS011;40873;47.522;19.106;2022-08-21T14:15:25;10.80;;;3.72;;
54977;SDS011;40873;47.522;19.106;2022-08-21T14:17:55;6.60;;;3.97;;
54977;SDS011;40873;47.522;19.106;2022-08-21T14:20:44;6.55;;;4.47;;
54977;SDS011;40873;47.522;19.106;2022-08-21T14:23:11;7.00;;;3.50;;
54977;SDS011;40873;47.522;19.106;2022-08-21T14:25:49;5.32;;;3.58;;
54977;SDS011;40873;47.522;19.106;2022-08-21T14:28:23;5.82;;;3.53;;
54977;SDS011;40873;47.522;19.106;2022-08-21T14:30:53;5.28;;;3.92;;
54977;SDS011;40873;47.522;19.106;2022-08-21T14:33:26;5.93;;;3.50;;
54977;SDS011;40873;47.522;19.106;2022-08-21T14:35:56;9.23;;;3.92;;
54977;SDS011;40873;47.522;19.106;2022-08-21T14:38:24;7.72;;;3.50;;
54977;SDS011;40873;47.522;19.106;2022-08-21T14:40:54;4.40;;;3.30;;
54977;SDS011;40873;47.522;19.106;2022-08-21T14:43:24;5.80;;;3.20;;
54977;SDS011;40873;47.522;19.106;2022-08-21T14:45:52;4.72;;;2.72;;
54977;SDS011;40873;47.522;19.106;2022-08-21T14:48:20;4.32;;;2.92;;
54977;SDS011;40873;47.522;19.106;2022-08-21T14:50:46;3.58;;;2.88;;
54977;SDS011;40873;47.522;19.106;2022-08-21T14:53:14;7.32;;;3.88;;
54977;SDS011;40873;47.522;19.106;2022-08-21T14:55:40;5.72;;;2.65;;
54977;SDS011;40873;47.522;19.106;2022-08-21T14:58:26;5.05;;;2.60;;
54977;SDS011;40873;47.522;19.106;2022-08-21T15:00:54;3.22;;;2.33;;
54977;SDS011;40873;47.522;19.106;2022-08-21T15:03:22;14.75;;;5.07;;
54977;SDS011;40873;47.522;19.106;2022-08-21T15:05:52;3.75;;;2.63;;
54977;SDS011;40873;47.522;19.106;2022-08-21T15:08:19;3.15;;;2.45;;
54977;SDS011;40873;47.522;19.106;2022-08-21T15:10:45;4.05;;;2.70;;
54977;SDS011;40873;47.522;19.106;2022-08-21T15:13:33;4.38;;;2.72;;
54977;SDS011;40873;47.522;19.106;2022-08-21T15:16:00;2.75;;;2.10;;
54977;SDS011;40873;47.522;19.106;2022-08-21T15:18:28;4.22;;;2.25;;
54977;SDS011;40873;47.522;19.106;2022-08-21T15:20:56;3.47;;;2.25;;
54977;SDS011;40873;47.522;19.106;2022-08-21T15:23:23;2.55;;;2.15;;
54977;SDS011;40873;47.522;19.106;2022-08-21T15:25:50;3.38;;;2.38;;
54977;SDS011;40873;47.522;19.106;2022-08-21T15:28:19;4.75;;;2.38;;
54977;SDS011;40873;47.522;19.106;2022-08-21T15:30:49;2.92;;;2.00;;
54977;SDS011;40873;47.522;19.106;2022-08-21T15:33:17;3.03;;;1.85;;
54977;SDS011;40873;47.522;19.106;2022-08-21T15:35:45;2.35;;;1.83;;
54977;SDS011;40873;47.522;19.106;2022-08-21T15:38:12;2.65;;;1.63;;
54977;SDS011;40873;47.522;19.106;2022-08-21T15:40:41;2.63;;;2.35;;
54977;SDS011;40873;47.522;19.106;2022-08-21T15:43:28;2.50;;;1.38;;
54977;SDS011;40873;47.522;19.106;2022-08-21T15:46:00;3.85;;;1.92;;
54977;SDS011;40873;47.522;19.106;2022-08-21T15:48:28;2.88;;;1.58;;
54977;SDS011;40873;47.522;19.106;2022-08-21T15:50:55;3.55;;;1.80;;
54977;SDS011;40873;47.522;19.106;2022-08-21T15:53:22;4.65;;;1.58;;
54977;SDS011;40873;47.522;19.106;2022-08-21T15:55:49;2.22;;;1.73;;
54977;SDS011;40873;47.522;19.106;2022-08-21T15:58:16;2.72;;;1.50;;
54977;SDS011;40873;47.522;19.106;2022-08-21T16:00:46;2.67;;;1.63;;
54977;SDS011;40873;47.522;19.106;2022-08-21T16:03:14;3.83;;;1.42;;
54977;SDS011;40873;47.522;19.106;2022-08-21T16:05:44;2.22;;;1.60;;
54977;SDS011;40873;47.522;19.106;2022-08-21T16:08:15;2.30;;;1.70;;
54977;SDS011;40873;47.522;19.106;2022-08-21T16:10:42;3.08;;;1.60;;
54977;SDS011;40873;47.522;19.106;2022-08-21T16:13:15;2.15;;;1.45;;
54977;SDS011;40873;47.522;19.106;2022-08-21T16:15:46;2.25;;;1.48;;
54977;SDS011;40873;47.522;19.106;2022-08-21T16:18:13;4.03;;;1.90;;
54977;SDS011;40873;47.522;19.106;2022-08-21T16:20:40;3.13;;;1.90;;
54977;SDS011;40873;47.522;19.106;2022-08-21T16:23:08;2.53;;;1.50;;
54977;SDS011;40873;47.522;19.106;2022-08-21T16:25:36;3.25;;;1.92;;
54977;SDS011;40873;47.522;19.106;2022-08-21T16:28:07;2.25;;;1.63;;
54977;SDS011;40873;47.522;19.106;2022-08-21T16:30:39;3.28;;;1.98;;
54977;SDS011;40873;47.522;19.106;2022-08-21T16:33:06;3.42;;;1.73;;